Terminal Aerodrome Forecast
Issued by NWS

Home | Current Version | Previous Version | Graphics & Text | Print | Product List | Glossary On
Versions: 1 2 3 4 5 6 7 8 9 10 11 12
180
FTUS43 KUNR 071740
TAFGCC
TAF
KGCC 071740Z 0718/0818 30028G42KT P6SM SCT100
     FM080100 30020KT P6SM SCT200
     FM081500 29011KT P6SM BKN100=

USA.gov is the U.S. government's official web portal to all federal, state and local government web resources and services.